Time;durP1;ratioP1;P1;durP2;ratioP2;P2;SDS_P1;SDS_P2;PMS_P1;PMS_P2;Temp;Humidity;BMP_temperature;BMP_pressure;BME280_temperature;BME280_humidity;BME280_pressure;Samples;Min_cycle;Max_cycle;Signal;HPM_P1;HPM_P2
2023/07/20 00:00:00;;;;;;;3.27;2.70;;;;;;;;;;5035570;28;20795;-59
2023/07/20 00:02:26;;;;;;;3.30;3.10;;;;;;;;;;5034943;28;20940;-60
2023/07/20 00:04:52;;;;;;;4.40;3.10;;;;;;;;;;5034075;28;20558;-59
2023/07/20 00:07:18;;;;;;;4.77;3.13;;;;;;;;;;5035469;28;20417;-59
2023/07/20 00:09:44;;;;;;;11.87;3.27;;;;;;;;;;5035431;28;20881;-59
2023/07/20 00:12:10;;;;;;;3.20;3.00;;;;;;;;;;5035307;28;20427;-59
2023/07/20 00:14:35;;;;;;;3.80;3.50;;;;;;;;;;5035310;28;20478;-59
2023/07/20 00:17:03;;;;;;;3.93;3.60;;;;;;;;;;5035180;28;20422;-59
2023/07/20 00:19:29;;;;;;;3.37;3.03;;;;;;;;;;5035193;28;20439;-59
2023/07/20 00:21:55;;;;;;;7.20;3.00;;;;;;;;;;5035118;28;20411;-59
2023/07/20 00:24:24;;;;;;;5.03;3.10;;;;;;;;;;5035043;28;20916;-59
2023/07/20 00:26:50;;;;;;;4.00;2.90;;;;;;;;;;5035070;28;20412;-59
2023/07/20 00:29:16;;;;;;;3.67;3.40;;;;;;;;;;5034952;28;20474;-59
2023/07/20 00:31:44;;;;;;;4.00;2.70;;;;;;;;;;5035022;28;20946;-59
2023/07/20 00:34:10;;;;;;;3.17;2.97;;;;;;;;;;5034957;28;20414;-59
2023/07/20 00:36:36;;;;;;;3.47;3.30;;;;;;;;;;5035133;28;20433;-59
2023/07/20 00:39:05;;;;;;;5.27;3.47;;;;;;;;;;5033567;28;20434;-59
2023/07/20 00:41:32;;;;;;;8.20;3.70;;;;;;;;;;5034775;28;20415;-59
2023/07/20 00:43:58;;;;;;;4.07;3.33;;;;;;;;;;5033586;28;20554;-59
2023/07/20 00:46:25;;;;;;;6.90;3.70;;;;;;;;;;5034429;28;20571;-58
2023/07/20 00:48:52;;;;;;;3.90;3.50;;;;;;;;;;5034435;28;20883;-58
2023/07/20 00:51:18;;;;;;;3.33;3.13;;;;;;;;;;5034169;28;20416;-56
2023/07/20 00:53:44;;;;;;;4.73;3.10;;;;;;;;;;5034054;28;20456;-57
2023/07/20 00:56:10;;;;;;;5.80;3.17;;;;;;;;;;5033809;28;20858;-57
2023/07/20 00:58:36;;;;;;;5.70;3.60;;;;;;;;;;5034271;28;20525;-57
2023/07/20 01:01:02;;;;;;;4.30;3.50;;;;;;;;;;5034328;28;20426;-56
2023/07/20 01:03:28;;;;;;;5.90;3.87;;;;;;;;;;5034006;28;20434;-56
2023/07/20 01:06:19;;;;;;;3.17;2.97;;;;;;;;;;5034106;28;20498;-56
2023/07/20 01:08:53;;;;;;;3.73;3.53;;;;;;;;;;5034118;28;20920;-56
2023/07/20 01:11:32;;;;;;;3.90;2.97;;;;;;;;;;5033930;28;20413;-57
2023/07/20 01:13:58;;;;;;;5.37;3.20;;;;;;;;;;5033563;28;20933;-56
2023/07/20 01:16:24;;;;;;;3.90;3.40;;;;;;;;;;5032772;28;20726;-56
2023/07/20 01:18:52;;;;;;;5.57;4.00;;;;;;;;;;5033591;28;20563;-55
2023/07/20 01:21:38;;;;;;;4.60;3.60;;;;;;;;;;5033753;28;20463;-56
2023/07/20 01:24:23;;;;;;;5.13;3.63;;;;;;;;;;5033509;28;20421;-56
2023/07/20 01:26:52;;;;;;;3.80;3.47;;;;;;;;;;5034034;28;20496;-56
2023/07/20 01:29:30;;;;;;;3.67;3.20;;;;;;;;;;5033485;28;20453;-56
2023/07/20 01:32:03;;;;;;;5.87;3.20;;;;;;;;;;5033806;28;20410;-56
2023/07/20 01:34:29;;;;;;;6.90;3.50;;;;;;;;;;5033479;28;20448;-58
2023/07/20 01:36:58;;;;;;;3.63;3.43;;;;;;;;;;5033484;28;20450;-56
2023/07/20 01:39:27;;;;;;;3.57;3.27;;;;;;;;;;5033583;28;20776;-56
2023/07/20 01:41:55;;;;;;;10.03;3.40;;;;;;;;;;5033814;28;20490;-56
2023/07/20 01:44:21;;;;;;;3.30;3.23;;;;;;;;;;5033365;28;20548;-56
2023/07/20 01:46:47;;;;;;;3.33;3.13;;;;;;;;;;5033742;28;20488;-55
2023/07/20 01:49:13;;;;;;;7.30;3.60;;;;;;;;;;5033367;28;20788;-58
2023/07/20 01:51:40;;;;;;;3.50;3.37;;;;;;;;;;5033470;28;20454;-56
2023/07/20 01:54:06;;;;;;;5.67;3.60;;;;;;;;;;5033261;28;20492;-57
2023/07/20 01:56:32;;;;;;;3.53;3.30;;;;;;;;;;5033263;28;20423;-56
2023/07/20 01:59:01;;;;;;;3.63;3.07;;;;;;;;;;5033153;28;20411;-57
2023/07/20 02:01:29;;;;;;;5.40;3.60;;;;;;;;;;5033455;28;20864;-56
2023/07/20 02:03:57;;;;;;;6.00;2.97;;;;;;;;;;5033168;28;20457;-56
2023/07/20 02:06:27;;;;;;;4.20;3.40;;;;;;;;;;5032899;28;20495;-57
2023/07/20 02:08:54;;;;;;;7.90;3.63;;;;;;;;;;5032036;28;20426;-56
2023/07/20 02:11:20;;;;;;;3.10;3.00;;;;;;;;;;5033131;28;20440;-56
2023/07/20 02:13:48;;;;;;;5.47;3.60;;;;;;;;;;5032766;28;20405;-56
2023/07/20 02:16:14;;;;;;;3.63;3.33;;;;;;;;;;5031761;28;20489;-56
2023/07/20 02:18:40;;;;;;;3.53;3.33;;;;;;;;;;5032699;28;20433;-56
2023/07/20 02:21:08;;;;;;;7.37;3.67;;;;;;;;;;5032977;28;20459;-56
2023/07/20 02:23:34;;;;;;;2.90;2.80;;;;;;;;;;5032606;28;20465;-57
2023/07/20 02:26:02;;;;;;;3.97;3.50;;;;;;;;;;5032971;28;20482;-56
2023/07/20 02:28:31;;;;;;;5.37;3.73;;;;;;;;;;5032656;28;20499;-57
2023/07/20 02:30:57;;;;;;;4.20;3.80;;;;;;;;;;5032790;28;20928;-57
2023/07/20 02:33:23;;;;;;;3.47;3.17;;;;;;;;;;5032600;28;20442;-56
2023/07/20 02:35:55;;;;;;;6.37;3.80;;;;;;;;;;5032373;28;20427;-57
2023/07/20 02:38:23;;;;;;;7.70;3.10;;;;;;;;;;5032393;28;20792;-56
2023/07/20 02:40:52;;;;;;;7.60;3.70;;;;;;;;;;5032206;28;20415;-56
2023/07/20 02:43:20;;;;;;;4.83;3.93;;;;;;;;;;5032378;28;20919;-56
2023/07/20 02:45:49;;;;;;;9.07;4.00;;;;;;;;;;5032303;28;20466;-59
2023/07/20 02:48:15;;;;;;;4.60;3.93;;;;;;;;;;5031471;28;20927;-57
2023/07/20 02:50:41;;;;;;;3.40;3.30;;;;;;;;;;5032221;28;20515;-57
2023/07/20 02:53:09;;;;;;;7.60;3.53;;;;;;;;;;5032535;28;20422;-57
2023/07/20 02:55:35;;;;;;;4.00;3.70;;;;;;;;;;5032373;28;20457;-57
2023/07/20 02:58:01;;;;;;;4.60;4.20;;;;;;;;;;5032442;28;20421;-57
2023/07/20 03:00:27;;;;;;;4.17;3.97;;;;;;;;;;5032153;28;20884;-57
2023/07/20 03:02:55;;;;;;;6.10;4.27;;;;;;;;;;5031795;28;20426;-57
2023/07/20 03:05:21;;;;;;;8.33;4.20;;;;;;;;;;5032003;28;20882;-57
2023/07/20 03:07:47;;;;;;;5.13;4.67;;;;;;;;;;5031980;28;20424;-57
2023/07/20 03:10:14;;;;;;;6.00;4.97;;;;;;;;;;5032405;28;20761;-59
2023/07/20 03:12:42;;;;;;;11.50;5.30;;;;;;;;;;5031947;28;20777;-59
2023/07/20 03:15:11;;;;;;;9.43;4.47;;;;;;;;;;5032508;28;20430;-59
2023/07/20 03:17:37;;;;;;;5.83;4.40;;;;;;;;;;5031232;28;20809;-59
2023/07/20 03:20:03;;;;;;;4.80;4.40;;;;;;;;;;5032599;28;20437;-59
2023/07/20 03:22:29;;;;;;;4.53;3.40;;;;;;;;;;5036029;28;20420;-59
2023/07/20 03:24:55;;;;;;;4.83;3.73;;;;;;;;;;5034820;28;20528;-59
2023/07/20 03:27:21;;;;;;;4.27;3.93;;;;;;;;;;5036332;28;20488;-59
2023/07/20 03:29:47;;;;;;;5.27;3.60;;;;;;;;;;5036207;28;20444;-59
2023/07/20 03:32:13;;;;;;;10.27;4.00;;;;;;;;;;5035908;28;20452;-59
2023/07/20 03:34:41;;;;;;;4.17;3.97;;;;;;;;;;5036042;28;20828;-59
2023/07/20 03:37:07;;;;;;;7.37;4.27;;;;;;;;;;5036133;28;20423;-59
2023/07/20 03:39:33;;;;;;;4.00;3.80;;;;;;;;;;5035952;28;20418;-59
2023/07/20 03:41:59;;;;;;;4.33;3.83;;;;;;;;;;5035944;28;20473;-59
2023/07/20 03:44:25;;;;;;;4.40;4.00;;;;;;;;;;5035902;28;20398;-57
2023/07/20 03:46:54;;;;;;;6.00;3.80;;;;;;;;;;5035691;28;20934;-57
2023/07/20 03:49:20;;;;;;;9.10;3.97;;;;;;;;;;5035495;28;20941;-57
2023/07/20 03:51:45;;;;;;;4.27;3.87;;;;;;;;;;5035807;28;20413;-58
2023/07/20 03:54:11;;;;;;;4.10;3.83;;;;;;;;;;5035384;28;20780;-57
2023/07/20 03:56:37;;;;;;;3.73;3.60;;;;;;;;;;5035562;28;20447;-57
2023/07/20 03:59:06;;;;;;;8.13;4.00;;;;;;;;;;5035269;28;20437;-57
2023/07/20 04:01:36;;;;;;;10.33;4.30;;;;;;;;;;5035491;28;20439;-58
2023/07/20 04:04:02;;;;;;;7.70;4.00;;;;;;;;;;5035157;28;20431;-57
2023/07/20 04:06:28;;;;;;;9.40;5.97;;;;;;;;;;5035855;28;20456;-58
2023/07/20 04:08:54;;;;;;;28.03;21.43;;;;;;;;;;5035401;28;20938;-55
2023/07/20 04:11:22;;;;;;;7.90;5.50;;;;;;;;;;5035230;28;20409;-55
2023/07/20 04:13:48;;;;;;;22.40;11.17;;;;;;;;;;5035106;28;21102;-55
2023/07/20 04:16:17;;;;;;;27.43;11.63;;;;;;;;;;5035347;28;20469;-53
2023/07/20 04:18:43;;;;;;;12.67;7.30;;;;;;;;;;5035324;28;20416;-54
2023/07/20 04:21:09;;;;;;;58.40;19.50;;;;;;;;;;5035226;28;20916;-56
2023/07/20 04:23:36;;;;;;;13.70;5.97;;;;;;;;;;5034914;28;20496;-53
2023/07/20 04:26:02;;;;;;;29.20;10.90;;;;;;;;;;5033681;28;20509;-54
2023/07/20 04:28:28;;;;;;;44.10;26.77;;;;;;;;;;5035278;28;20408;-54
2023/07/20 04:30:54;;;;;;;24.60;12.77;;;;;;;;;;5034142;28;20915;-54
2023/07/20 04:33:20;;;;;;;18.57;11.57;;;;;;;;;;5034761;28;20438;-54
2023/07/20 04:35:52;;;;;;;17.47;9.63;;;;;;;;;;5034837;28;20442;-54
2023/07/20 04:38:18;;;;;;;25.17;12.87;;;;;;;;;;5034745;28;20557;-54
2023/07/20 04:40:45;;;;;;;16.83;6.70;;;;;;;;;;5034386;28;20410;-55
2023/07/20 04:43:14;;;;;;;4.97;4.53;;;;;;;;;;5034276;28;20479;-54
2023/07/20 04:45:40;;;;;;;13.20;6.90;;;;;;;;;;5034306;28;20948;-54
2023/07/20 04:48:10;;;;;;;17.13;8.60;;;;;;;;;;5033223;28;20448;-55
2023/07/20 04:50:36;;;;;;;21.37;10.10;;;;;;;;;;5034422;28;20437;-54
2023/07/20 04:53:02;;;;;;;4.77;4.37;;;;;;;;;;5034618;28;20446;-55
2023/07/20 04:55:32;;;;;;;5.70;5.00;;;;;;;;;;5034550;28;20414;-54
2023/07/20 04:57:58;;;;;;;11.10;5.43;;;;;;;;;;5034481;28;20440;-54
2023/07/20 05:00:24;;;;;;;28.03;8.13;;;;;;;;;;5033942;28;20889;-53
2023/07/20 05:02:50;;;;;;;9.90;5.23;;;;;;;;;;5034073;28;20452;-55
2023/07/20 05:05:16;;;;;;;6.17;5.30;;;;;;;;;;5033942;28;20471;-54
2023/07/20 05:07:42;;;;;;;7.70;4.40;;;;;;;;;;5034290;28;20420;-54
2023/07/20 05:10:11;;;;;;;4.50;4.10;;;;;;;;;;5034216;28;21054;-54
2023/07/20 05:12:37;;;;;;;11.93;4.13;;;;;;;;;;5034026;28;20879;-54
2023/07/20 05:15:03;;;;;;;7.30;4.73;;;;;;;;;;5034136;28;20435;-54
2023/07/20 05:17:29;;;;;;;7.90;4.57;;;;;;;;;;5032512;28;20428;-54
2023/07/20 05:19:55;;;;;;;5.13;4.73;;;;;;;;;;5033892;28;20417;-54
2023/07/20 05:22:21;;;;;;;6.20;4.90;;;;;;;;;;5033931;28;20467;-54
2023/07/20 05:24:50;;;;;;;5.07;3.97;;;;;;;;;;5033766;28;20468;-54
2023/07/20 05:27:16;;;;;;;4.97;3.90;;;;;;;;;;5033809;28;20533;-53
2023/07/20 05:29:50;;;;;;;4.93;4.40;;;;;;;;;;5033389;28;20442;-53
2023/07/20 05:32:16;;;;;;;7.67;4.57;;;;;;;;;;5033581;28;20432;-54
2023/07/20 05:34:42;;;;;;;6.07;4.30;;;;;;;;;;5032837;28;20433;-54
2023/07/20 05:37:08;;;;;;;3.87;3.63;;;;;;;;;;5033470;28;20537;-53
2023/07/20 05:39:34;;;;;;;9.17;4.50;;;;;;;;;;5033486;28;20413;-53
2023/07/20 05:42:00;;;;;;;4.80;4.27;;;;;;;;;;5033529;28;20444;-53
2023/07/20 05:44:26;;;;;;;10.20;4.77;;;;;;;;;;5033450;28;20404;-54
2023/07/20 05:46:55;;;;;;;5.27;4.73;;;;;;;;;;5033587;28;20880;-53
2023/07/20 05:49:21;;;;;;;6.30;4.33;;;;;;;;;;5033402;28;20431;-54
2023/07/20 05:51:47;;;;;;;7.13;4.07;;;;;;;;;;5033587;28;20807;-54
2023/07/20 05:54:13;;;;;;;7.87;4.90;;;;;;;;;;5033312;28;20413;-54
2023/07/20 05:56:39;;;;;;;6.20;4.80;;;;;;;;;;5033080;28;20422;-53
2023/07/20 05:59:05;;;;;;;5.03;4.43;;;;;;;;;;5033171;28;20465;-55
2023/07/20 06:01:33;;;;;;;6.43;4.80;;;;;;;;;;5033042;28;21098;-53
2023/07/20 06:04:03;;;;;;;4.60;4.33;;;;;;;;;;5032550;28;20951;-54
2023/07/20 06:06:29;;;;;;;4.90;4.30;;;;;;;;;;5032982;28;20470;-54
2023/07/20 06:08:57;;;;;;;4.63;4.30;;;;;;;;;;5033178;28;20411;-55
2023/07/20 06:11:23;;;;;;;7.70;4.20;;;;;;;;;;5014252;28;20937;-55
2023/07/20 06:13:52;;;;;;;4.53;4.13;;;;;;;;;;5012153;28;20411;-56
2023/07/20 06:16:20;;;;;;;4.30;4.00;;;;;;;;;;5012298;28;20956;-55
2023/07/20 06:18:46;;;;;;;5.10;4.50;;;;;;;;;;5012650;28;20503;-55
2023/07/20 06:21:15;;;;;;;4.20;4.00;;;;;;;;;;5012766;28;20473;-54
2023/07/20 06:23:41;;;;;;;4.67;4.30;;;;;;;;;;5013151;28;20993;-55
2023/07/20 06:26:07;;;;;;;13.53;4.27;;;;;;;;;;5012908;28;20466;-56
2023/07/20 06:28:33;;;;;;;4.83;4.23;;;;;;;;;;5012889;28;20423;-55
2023/07/20 06:31:03;;;;;;;4.80;4.37;;;;;;;;;;5011686;28;20900;-54
2023/07/20 06:33:31;;;;;;;5.40;3.57;;;;;;;;;;5012882;28;20443;-55
2023/07/20 06:36:00;;;;;;;6.27;3.97;;;;;;;;;;5012883;28;20511;-55
2023/07/20 06:38:26;;;;;;;5.77;3.87;;;;;;;;;;5013250;28;20508;-55
2023/07/20 06:40:52;;;;;;;7.40;4.27;;;;;;;;;;5012486;28;20416;-55
2023/07/20 06:43:18;;;;;;;3.60;3.33;;;;;;;;;;5011779;28;20420;-55
2023/07/20 06:45:44;;;;;;;4.90;3.87;;;;;;;;;;5012284;28;20834;-55
2023/07/20 06:48:10;;;;;;;8.97;4.03;;;;;;;;;;5012393;28;20421;-56
2023/07/20 06:50:36;;;;;;;4.60;4.20;;;;;;;;;;5012559;28;20420;-55
2023/07/20 06:53:05;;;;;;;4.73;3.20;;;;;;;;;;5012673;28;20826;-54
2023/07/20 06:55:33;;;;;;;3.80;3.50;;;;;;;;;;5012222;28;20469;-55
2023/07/20 06:58:02;;;;;;;4.00;3.60;;;;;;;;;;5012538;28;20422;-55
2023/07/20 07:00:28;;;;;;;3.40;3.30;;;;;;;;;;5012396;28;20986;-55
2023/07/20 07:02:54;;;;;;;4.03;3.57;;;;;;;;;;5012251;28;20509;-54
2023/07/20 07:05:21;;;;;;;4.20;3.53;;;;;;;;;;5012383;28;20469;-55
2023/07/20 07:07:47;;;;;;;3.77;3.57;;;;;;;;;;5012156;28;20419;-56
2023/07/20 07:10:18;;;;;;;4.50;3.20;;;;;;;;;;5011792;28;20519;-56
2023/07/20 07:12:44;;;;;;;5.87;3.83;;;;;;;;;;5012419;28;20416;-56
2023/07/20 07:15:12;;;;;;;3.37;3.20;;;;;;;;;;5012363;28;20410;-55
2023/07/20 07:17:41;;;;;;;3.30;3.20;;;;;;;;;;5011897;28;20457;-55
2023/07/20 07:20:08;;;;;;;4.90;3.00;;;;;;;;;;5012447;28;20447;-56
2023/07/20 07:22:36;;;;;;;8.40;3.20;;;;;;;;;;5011668;28;20977;-56
2023/07/20 07:25:03;;;;;;;10.43;3.60;;;;;;;;;;5013221;28;20477;-57
2023/07/20 07:27:29;;;;;;;8.90;3.63;;;;;;;;;;5024841;28;20525;-57
2023/07/20 07:29:57;;;;;;;5.93;3.83;;;;;;;;;;5030601;28;20441;-57
2023/07/20 07:32:23;;;;;;;6.97;3.77;;;;;;;;;;5032072;28;20464;-56
2023/07/20 07:34:49;;;;;;;8.80;3.60;;;;;;;;;;5031280;28;20517;-57
2023/07/20 07:37:19;;;;;;;5.53;4.10;;;;;;;;;;5030718;28;20429;-55
2023/07/20 07:39:45;;;;;;;3.90;3.27;;;;;;;;;;5030890;28;20425;-55
2023/07/20 07:42:14;;;;;;;6.27;4.30;;;;;;;;;;5030572;28;20427;-55
2023/07/20 07:44:40;;;;;;;6.87;4.40;;;;;;;;;;5031906;28;20434;-56
2023/07/20 07:47:06;;;;;;;8.93;3.60;;;;;;;;;;5031794;28;20501;-56
2023/07/20 07:49:32;;;;;;;3.00;2.80;;;;;;;;;;5031270;28;20454;-56
2023/07/20 07:51:58;;;;;;;11.87;3.90;;;;;;;;;;5031914;28;20429;-56
2023/07/20 07:54:24;;;;;;;7.60;3.60;;;;;;;;;;5031374;28;20418;-56
2023/07/20 07:56:52;;;;;;;5.30;4.00;;;;;;;;;;5032422;28;20416;-55
2023/07/20 07:59:18;;;;;;;4.13;3.73;;;;;;;;;;5031983;28;20478;-56
2023/07/20 08:01:44;;;;;;;3.53;3.30;;;;;;;;;;5031716;28;20449;-56
2023/07/20 08:04:13;;;;;;;8.80;3.80;;;;;;;;;;5031889;28;20532;-57
2023/07/20 08:06:41;;;;;;;4.60;3.53;;;;;;;;;;5033088;28;20548;-57
2023/07/20 08:09:07;;;;;;;10.27;3.90;;;;;;;;;;5035544;28;20445;-57
2023/07/20 08:11:33;;;;;;;6.00;4.37;;;;;;;;;;5035268;28;20416;-57
2023/07/20 08:14:01;;;;;;;4.47;4.17;;;;;;;;;;5035397;28;20408;-57
2023/07/20 08:16:28;;;;;;;4.67;3.70;;;;;;;;;;5035536;28;20444;-57
2023/07/20 08:18:54;;;;;;;9.57;4.30;;;;;;;;;;5035655;28;20481;-57
2023/07/20 08:21:20;;;;;;;6.87;4.10;;;;;;;;;;5034765;28;20446;-57
2023/07/20 08:23:48;;;;;;;5.03;3.87;;;;;;;;;;5034708;28;20473;-57
2023/07/20 08:26:16;;;;;;;4.80;4.10;;;;;;;;;;5035045;28;20561;-57
2023/07/20 08:28:43;;;;;;;6.87;3.27;;;;;;;;;;5034989;28;20967;-57
2023/07/20 08:31:09;;;;;;;6.07;3.70;;;;;;;;;;5033488;28;20420;-57
2023/07/20 08:33:35;;;;;;;59.87;8.00;;;;;;;;;;5035096;28;20547;-57
2023/07/20 08:36:03;;;;;;;11.07;4.53;;;;;;;;;;5033679;28;20443;-57
2023/07/20 08:38:29;;;;;;;16.53;5.60;;;;;;;;;;5034442;28;20782;-57
2023/07/20 08:40:55;;;;;;;4.10;3.80;;;;;;;;;;5034924;28;20412;-57
2023/07/20 08:43:24;;;;;;;6.63;3.43;;;;;;;;;;5034923;28;20482;-57
2023/07/20 08:45:55;;;;;;;22.00;4.63;;;;;;;;;;5033535;28;20471;-57
2023/07/20 08:48:21;;;;;;;3.87;3.40;;;;;;;;;;5032063;28;20464;-66
2023/07/20 08:50:50;;;;;;;12.10;4.33;;;;;;;;;;5013427;28;20996;-66
2023/07/20 08:53:16;;;;;;;6.27;3.87;;;;;;;;;;5014865;28;20468;-67
2023/07/20 08:55:47;;;;;;;4.10;2.90;;;;;;;;;;5014582;28;20507;-66
2023/07/20 08:58:14;;;;;;;3.50;3.40;;;;;;;;;;5014995;28;20450;-66
2023/07/20 09:00:41;;;;;;;4.30;3.10;;;;;;;;;;5015044;28;20504;-66
2023/07/20 09:03:08;;;;;;;5.67;3.43;;;;;;;;;;5015083;28;20519;-66
2023/07/20 09:05:38;;;;;;;6.47;3.57;;;;;;;;;;5014500;28;21093;-66
2023/07/20 09:08:07;;;;;;;6.53;3.07;;;;;;;;;;5014397;28;20417;-66
2023/07/20 09:10:35;;;;;;;3.47;3.27;;;;;;;;;;5015001;28;20450;-66
2023/07/20 09:13:04;;;;;;;5.60;2.83;;;;;;;;;;5014546;28;20436;-66
2023/07/20 09:15:30;;;;;;;2.53;2.43;;;;;;;;;;5014845;28;20440;-66
2023/07/20 09:17:56;;;;;;;3.70;3.40;;;;;;;;;;5014237;28;20501;-66
2023/07/20 09:20:22;;;;;;;5.70;2.90;;;;;;;;;;5014356;28;20436;-65
2023/07/20 09:22:49;;;;;;;10.03;2.90;;;;;;;;;;5024620;28;20629;-65
2023/07/20 09:25:20;;;;;;;4.97;3.37;;;;;;;;;;5034100;28;20528;-65
2023/07/20 09:27:47;;;;;;;2.50;2.40;;;;;;;;;;5034288;28;20512;-66
2023/07/20 09:30:14;;;;;;;3.67;2.40;;;;;;;;;;5034037;28;20836;-65
2023/07/20 09:32:41;;;;;;;2.63;2.43;;;;;;;;;;5034367;28;20776;-65
2023/07/20 09:35:07;;;;;;;4.70;3.30;;;;;;;;;;5034016;28;20415;-65
2023/07/20 09:37:33;;;;;;;2.90;2.80;;;;;;;;;;5033946;28;20446;-65
2023/07/20 09:40:00;;;;;;;3.83;2.50;;;;;;;;;;5034184;28;20418;-65
2023/07/20 09:42:27;;;;;;;4.63;2.40;;;;;;;;;;5034180;28;20446;-65
2023/07/20 09:44:53;;;;;;;8.90;2.97;;;;;;;;;;5034233;28;21009;-66
2023/07/20 09:47:23;;;;;;;2.67;2.57;;;;;;;;;;5033915;28;20433;-65
2023/07/20 09:49:49;;;;;;;2.80;2.70;;;;;;;;;;5033627;28;20431;-66
2023/07/20 09:52:15;;;;;;;3.90;3.00;;;;;;;;;;5032274;28;20431;-66
2023/07/20 09:54:43;;;;;;;7.33;3.47;;;;;;;;;;5033552;28;20427;-66
2023/07/20 09:57:10;;;;;;;3.30;3.00;;;;;;;;;;5033561;28;20467;-66
2023/07/20 09:59:38;;;;;;;2.80;2.40;;;;;;;;;;5033104;28;20458;-66
2023/07/20 10:02:12;;;;;;;5.20;2.60;;;;;;;;;;5033601;28;20445;-66
2023/07/20 10:04:40;;;;;;;2.80;2.60;;;;;;;;;;5032955;28;20952;-66
2023/07/20 10:07:11;;;;;;;5.13;2.97;;;;;;;;;;5033209;28;20450;-66
2023/07/20 10:09:39;;;;;;;3.00;2.80;;;;;;;;;;5033509;28;20462;-66
2023/07/20 10:12:07;;;;;;;2.80;2.70;;;;;;;;;;5033585;28;20415;-66
2023/07/20 10:14:35;;;;;;;3.80;3.00;;;;;;;;;;5032898;28;20413;-66
2023/07/20 10:17:02;;;;;;;2.50;2.30;;;;;;;;;;5033130;28;20451;-65
2023/07/20 10:19:31;;;;;;;2.60;2.40;;;;;;;;;;5031420;28;20415;-66
2023/07/20 10:22:01;;;;;;;3.77;2.47;;;;;;;;;;5031567;28;20447;-66
2023/07/20 10:24:28;;;;;;;3.70;2.90;;;;;;;;;;5032971;28;20426;-67
2023/07/20 10:26:55;;;;;;;4.07;2.40;;;;;;;;;;5032825;28;20423;-66
2023/07/20 10:29:24;;;;;;;2.33;2.17;;;;;;;;;;5027125;28;20781;-66
2023/07/20 10:31:50;;;;;;;2.47;2.27;;;;;;;;;;5013115;28;20824;-66
2023/07/20 10:34:16;;;;;;;3.27;3.17;;;;;;;;;;5013028;28;20954;-66
2023/07/20 10:36:51;;;;;;;3.33;2.70;;;;;;;;;;5012286;28;20796;-66
2023/07/20 10:39:44;;;;;;;3.93;2.97;;;;;;;;;;5013054;28;20427;-65
2023/07/20 10:42:10;;;;;;;2.80;2.63;;;;;;;;;;5011325;28;20915;-66
2023/07/20 10:44:42;;;;;;;3.33;2.87;;;;;;;;;;5012902;28;20424;-65
2023/07/20 10:47:12;;;;;;;4.30;2.40;;;;;;;;;;5012828;28;20424;-65
2023/07/20 10:49:57;;;;;;;6.33;2.67;;;;;;;;;;5012900;28;20444;-65
2023/07/20 10:52:23;;;;;;;2.60;2.50;;;;;;;;;;5012679;28;20416;-65
2023/07/20 10:54:50;;;;;;;3.63;3.17;;;;;;;;;;5012717;28;20503;-65
2023/07/20 10:57:29;;;;;;;4.30;2.57;;;;;;;;;;5012657;28;20515;-65
2023/07/20 11:00:08;;;;;;;2.80;2.53;;;;;;;;;;5012519;28;20455;-65
2023/07/20 11:02:42;;;;;;;2.30;2.20;;;;;;;;;;5012139;28;20420;-65
2023/07/20 11:05:10;;;;;;;2.93;2.70;;;;;;;;;;5012363;28;20480;-65
2023/07/20 11:07:38;;;;;;;5.97;2.40;;;;;;;;;;5012524;28;20954;-65
2023/07/20 11:10:14;;;;;;;2.43;2.33;;;;;;;;;;5012681;28;20444;-65
2023/07/20 11:12:40;;;;;;;3.27;2.73;;;;;;;;;;5012564;28;20422;-65
2023/07/20 11:15:07;;;;;;;2.30;2.23;;;;;;;;;;5012337;28;20505;-65
2023/07/20 11:17:34;;;;;;;2.77;2.57;;;;;;;;;;5012281;28;20442;-65
2023/07/20 11:20:01;;;;;;;5.50;2.20;;;;;;;;;;5011059;28;20492;-65
2023/07/20 11:22:27;;;;;;;2.50;2.23;;;;;;;;;;5012227;28;20422;-65
2023/07/20 11:24:59;;;;;;;2.50;2.40;;;;;;;;;;5012094;28;20942;-65
2023/07/20 11:27:25;;;;;;;4.13;2.00;;;;;;;;;;5012338;28;20436;-65
2023/07/20 11:29:51;;;;;;;4.70;2.57;;;;;;;;;;5012263;28;20919;-65
2023/07/20 11:32:24;;;;;;;4.33;2.20;;;;;;;;;;5012301;28;20564;-65
2023/07/20 11:34:50;;;;;;;2.87;2.57;;;;;;;;;;5012350;28;20405;-66
2023/07/20 11:37:19;;;;;;;2.87;2.67;;;;;;;;;;5012377;28;20424;-66
2023/07/20 11:39:45;;;;;;;6.23;2.70;;;;;;;;;;5011971;28;20523;-66
2023/07/20 11:42:12;;;;;;;5.80;2.43;;;;;;;;;;5015861;28;20452;-66
2023/07/20 11:44:38;;;;;;;2.60;2.40;;;;;;;;;;5015911;28;20428;-66
2023/07/20 11:47:05;;;;;;;2.37;2.27;;;;;;;;;;5015964;28;20412;-65
2023/07/20 11:49:35;;;;;;;2.60;2.50;;;;;;;;;;5015913;28;20511;-65
2023/07/20 11:52:01;;;;;;;5.03;2.27;;;;;;;;;;5014594;28;20432;-65
2023/07/20 11:54:27;;;;;;;2.30;2.20;;;;;;;;;;5016390;28;20796;-65
2023/07/20 11:56:55;;;;;;;2.40;2.20;;;;;;;;;;5015898;28;20420;-65
2023/07/20 11:59:21;;;;;;;1.93;1.93;;;;;;;;;;5015888;28;20428;-65
2023/07/20 12:01:47;;;;;;;3.00;2.43;;;;;;;;;;5015812;28;20498;-65
2023/07/20 12:04:13;;;;;;;2.30;2.20;;;;;;;;;;5015061;28;20452;-64
2023/07/20 12:06:41;;;;;;;2.20;2.20;;;;;;;;;;5015539;28;21036;-65
2023/07/20 12:09:13;;;;;;;3.63;2.40;;;;;;;;;;5015454;28;20819;-65
2023/07/20 12:11:43;;;;;;;3.47;2.10;;;;;;;;;;5015531;28;20901;-66
2023/07/20 12:14:09;;;;;;;4.63;2.33;;;;;;;;;;5015306;28;20417;-66
2023/07/20 12:16:37;;;;;;;5.00;2.27;;;;;;;;;;5015550;28;20408;-66
2023/07/20 12:19:05;;;;;;;2.20;2.10;;;;;;;;;;5015369;28;20432;-66
2023/07/20 12:21:31;;;;;;;2.40;2.23;;;;;;;;;;5015262;28;20427;-66
2023/07/20 12:23:58;;;;;;;1.97;1.87;;;;;;;;;;5015547;28;20440;-66
2023/07/20 12:26:25;;;;;;;2.63;2.40;;;;;;;;;;5015380;28;20456;-66
2023/07/20 12:28:51;;;;;;;3.50;2.37;;;;;;;;;;5015172;28;20989;-66
2023/07/20 12:31:17;;;;;;;2.40;2.30;;;;;;;;;;5015213;28;20462;-66
2023/07/20 12:33:43;;;;;;;2.90;2.60;;;;;;;;;;5014018;28;20466;-66
2023/07/20 12:36:10;;;;;;;1.97;1.97;;;;;;;;;;5015047;28;20781;-66
2023/07/20 12:38:37;;;;;;;3.30;2.57;;;;;;;;;;5015275;28;20547;-66
2023/07/20 12:41:03;;;;;;;2.30;2.20;;;;;;;;;;5015060;28;20491;-66
2023/07/20 12:43:29;;;;;;;2.10;2.00;;;;;;;;;;5014062;28;20830;-66
2023/07/20 12:45:58;;;;;;;2.20;2.10;;;;;;;;;;5014927;28;20563;-66
2023/07/20 12:48:24;;;;;;;2.73;2.33;;;;;;;;;;5014942;28;20408;-66
2023/07/20 12:50:50;;;;;;;4.00;2.40;;;;;;;;;;5013442;28;20439;-66
2023/07/20 12:53:16;;;;;;;2.73;2.30;;;;;;;;;;5014091;28;20456;-66
2023/07/20 12:55:43;;;;;;;4.33;1.90;;;;;;;;;;5014955;28;20907;-66
2023/07/20 12:58:09;;;;;;;2.13;2.03;;;;;;;;;;5014619;28;20843;-66
2023/07/20 13:00:35;;;;;;;2.70;2.50;;;;;;;;;;5014642;28;20429;-66
2023/07/20 13:03:04;;;;;;;2.33;2.23;;;;;;;;;;5014484;28;20462;-66
2023/07/20 13:05:31;;;;;;;2.50;2.30;;;;;;;;;;5014629;28;20533;-66
2023/07/20 13:08:02;;;;;;;2.10;2.00;;;;;;;;;;5014548;28;20948;-66
2023/07/20 13:10:31;;;;;;;2.17;2.07;;;;;;;;;;5014607;28;20463;-66
2023/07/20 13:12:57;;;;;;;6.03;2.03;;;;;;;;;;5014455;28;20417;-66
2023/07/20 13:15:25;;;;;;;2.83;2.23;;;;;;;;;;5014498;28;20407;-66
2023/07/20 13:17:51;;;;;;;2.37;2.27;;;;;;;;;;5014467;28;20425;-66
2023/07/20 13:20:18;;;;;;;2.97;2.73;;;;;;;;;;5014338;28;20448;-66
2023/07/20 13:22:44;;;;;;;11.97;2.40;;;;;;;;;;5014369;28;20409;-66
2023/07/20 13:25:10;;;;;;;2.60;2.10;;;;;;;;;;5014157;28;20935;-66
2023/07/20 13:27:39;;;;;;;2.17;2.07;;;;;;;;;;5014312;28;20471;-66
2023/07/20 13:30:07;;;;;;;2.13;2.00;;;;;;;;;;5014060;28;20443;-66
2023/07/20 13:32:33;;;;;;;2.53;2.33;;;;;;;;;;5014280;28;20412;-66
2023/07/20 13:35:02;;;;;;;2.87;2.50;;;;;;;;;;5014473;28;20850;-66
2023/07/20 13:37:28;;;;;;;2.40;2.00;;;;;;;;;;5014044;28;20417;-67
2023/07/20 13:39:54;;;;;;;2.30;2.10;;;;;;;;;;5014405;28;20437;-66
2023/07/20 13:42:22;;;;;;;2.40;2.30;;;;;;;;;;5014005;28;20424;-66
2023/07/20 13:44:49;;;;;;;6.60;2.27;;;;;;;;;;5013776;28;20433;-67
2023/07/20 13:47:15;;;;;;;2.00;1.90;;;;;;;;;;5013932;28;20884;-66
2023/07/20 13:49:41;;;;;;;2.53;2.17;;;;;;;;;;5013853;28;20421;-66
2023/07/20 13:52:09;;;;;;;3.20;2.40;;;;;;;;;;5013845;28;20437;-66
2023/07/20 13:54:35;;;;;;;4.73;2.20;;;;;;;;;;5014402;28;20400;-66
2023/07/20 13:57:02;;;;;;;2.23;2.13;;;;;;;;;;5013939;28;20788;-66
2023/07/20 13:59:30;;;;;;;2.03;1.90;;;;;;;;;;5013645;28;20428;-66
2023/07/20 14:01:56;;;;;;;6.20;2.13;;;;;;;;;;5013738;28;20421;-66
2023/07/20 14:04:22;;;;;;;2.50;2.40;;;;;;;;;;5012841;28;20467;-66
2023/07/20 14:06:48;;;;;;;1.90;1.90;;;;;;;;;;5013399;28;20826;-66
2023/07/20 14:09:14;;;;;;;2.00;1.90;;;;;;;;;;5013452;28;20439;-66
2023/07/20 14:11:41;;;;;;;2.20;2.10;;;;;;;;;;5013714;28;20397;-66
2023/07/20 14:14:07;;;;;;;6.70;1.73;;;;;;;;;;5013419;28;20420;-66
2023/07/20 14:16:33;;;;;;;2.20;2.00;;;;;;;;;;5013550;28;20765;-66
2023/07/20 14:18:59;;;;;;;2.30;2.20;;;;;;;;;;5013624;28;20471;-66
2023/07/20 14:21:25;;;;;;;3.50;2.10;;;;;;;;;;5011984;28;20413;-66
2023/07/20 14:23:53;;;;;;;2.57;2.40;;;;;;;;;;5013296;28;20423;-66
2023/07/20 14:26:19;;;;;;;4.00;2.20;;;;;;;;;;5011841;28;20515;-66
2023/07/20 14:28:45;;;;;;;4.27;2.37;;;;;;;;;;5013193;28;20409;-66
2023/07/20 14:31:13;;;;;;;6.33;1.70;;;;;;;;;;5012977;28;20437;-66
2023/07/20 14:33:39;;;;;;;5.77;2.23;;;;;;;;;;5013111;28;20417;-66
2023/07/20 14:36:07;;;;;;;6.67;2.00;;;;;;;;;;5013119;28;20429;-66
2023/07/20 14:38:36;;;;;;;1.97;1.90;;;;;;;;;;5011576;28;20486;-66
2023/07/20 14:41:03;;;;;;;5.93;2.37;;;;;;;;;;5011395;28;20926;-66